sensor_id;sensor_type;location;lat;lon;timestamp;pressure;altitude;pressure_sealevel;temperature;humidity
61324;BME280;47203;48.428;11.974;2022-07-23T00:00:44;96738.22;;;27.41;43.48
61324;BME280;47203;48.428;11.974;2022-07-23T00:02:49;96725.09;;;27.39;42.95
61324;BME280;47203;48.428;11.974;2022-07-23T00:04:55;96720.47;;;27.40;43.57
61324;BME280;47203;48.428;11.974;2022-07-23T00:07:00;96717.78;;;27.40;43.27
61324;BME280;47203;48.428;11.974;2022-07-23T00:09:08;96718.91;;;27.39;43.57
61324;BME280;47203;48.428;11.974;2022-07-23T00:11:13;96724.34;;;27.42;43.07
61324;BME280;47203;48.428;11.974;2022-07-23T00:13:19;96752.16;;;27.46;43.09
61324;BME280;47203;48.428;11.974;2022-07-23T00:15:24;96766.13;;;27.52;43.08
61324;BME280;47203;48.428;11.974;2022-07-23T00:17:29;96767.69;;;27.57;43.55
61324;BME280;47203;48.428;11.974;2022-07-23T00:19:34;96772.34;;;27.60;43.60
61324;BME280;47203;48.428;11.974;2022-07-23T00:21:40;96766.59;;;27.61;43.38
61324;BME280;47203;48.428;11.974;2022-07-23T00:23:45;96745.69;;;27.58;43.29
61324;BME280;47203;48.428;11.974;2022-07-23T00:25:53;96741.41;;;27.54;43.50
61324;BME280;47203;48.428;11.974;2022-07-23T00:27:59;96740.22;;;27.51;43.78
61324;BME280;47203;48.428;11.974;2022-07-23T00:30:07;96747.94;;;27.49;43.23
61324;BME280;47203;48.428;11.974;2022-07-23T00:32:12;96749.09;;;27.48;43.38
61324;BME280;47203;48.428;11.974;2022-07-23T00:34:37;96760.25;;;27.43;43.75
61324;BME280;47203;48.428;11.974;2022-07-23T00:36:43;96758.31;;;27.43;43.72
61324;BME280;47203;48.428;11.974;2022-07-23T00:38:48;96762.97;;;27.43;43.87
61324;BME280;47203;48.428;11.974;2022-07-23T00:40:56;96760.63;;;27.41;43.78
61324;BME280;47203;48.428;11.974;2022-07-23T00:43:02;96763.72;;;27.43;43.30
61324;BME280;47203;48.428;11.974;2022-07-23T00:45:08;96769.13;;;27.43;43.62
61324;BME280;47203;48.428;11.974;2022-07-23T00:47:14;96773.41;;;27.44;43.25
61324;BME280;47203;48.428;11.974;2022-07-23T00:49:19;96769.56;;;27.45;43.25
61324;BME280;47203;48.428;11.974;2022-07-23T00:51:25;96769.19;;;27.47;43.58
61324;BME280;47203;48.428;11.974;2022-07-23T00:53:31;96768.81;;;27.48;43.39
61324;BME280;47203;48.428;11.974;2022-07-23T00:55:37;96764.22;;;27.52;43.28
61324;BME280;47203;48.428;11.974;2022-07-23T00:57:45;96765.38;;;27.55;43.66
61324;BME280;47203;48.428;11.974;2022-07-23T00:59:51;96764.66;;;27.62;43.33
61324;BME280;47203;48.428;11.974;2022-07-23T01:01:57;96753.84;;;27.65;43.37
61324;BME280;47203;48.428;11.974;2022-07-23T01:04:02;96758.13;;;27.66;43.27
61324;BME280;47203;48.428;11.974;2022-07-23T01:06:08;96761.97;;;27.65;43.37
61324;BME280;47203;48.428;11.974;2022-07-23T01:08:13;96766.22;;;27.63;43.14
61324;BME280;47203;48.428;11.974;2022-07-23T01:10:20;96762.31;;;27.60;43.47
61324;BME280;47203;48.428;11.974;2022-07-23T01:12:37;96762.28;;;27.57;43.48
61324;BME280;47203;48.428;11.974;2022-07-23T01:14:45;96759.94;;;27.51;43.28
61324;BME280;47203;48.428;11.974;2022-07-23T01:16:51;96758.81;;;27.52;43.28
61324;BME280;47203;48.428;11.974;2022-07-23T01:18:57;96757.25;;;27.51;43.02
61324;BME280;47203;48.428;11.974;2022-07-23T01:21:04;96754.91;;;27.50;43.35
61324;BME280;47203;48.428;11.974;2022-07-23T01:23:13;96758.38;;;27.47;43.34
61324;BME280;47203;48.428;11.974;2022-07-23T01:25:25;96768.38;;;27.43;43.16
61324;BME280;47203;48.428;11.974;2022-07-23T01:27:36;96775.19;;;27.33;43.72
61324;BME280;47203;48.428;11.974;2022-07-23T01:29:42;96774.00;;;27.27;43.46
61324;BME280;47203;48.428;11.974;2022-07-23T01:31:52;96787.06;;;27.21;43.95
61324;BME280;47203;48.428;11.974;2022-07-23T01:33:58;96812.88;;;27.15;43.62
61324;BME280;47203;48.428;11.974;2022-07-23T01:36:04;96838.25;;;27.07;43.79
61324;BME280;47203;48.428;11.974;2022-07-23T01:38:09;96845.88;;;26.97;43.75
61324;BME280;47203;48.428;11.974;2022-07-23T01:40:18;96857.31;;;26.87;44.13
61324;BME280;47203;48.428;11.974;2022-07-23T01:42:25;96869.63;;;26.85;43.70
61324;BME280;47203;48.428;11.974;2022-07-23T01:44:30;96882.38;;;26.84;43.35
61324;BME280;47203;48.428;11.974;2022-07-23T01:46:38;96882.38;;;26.84;43.74
61324;BME280;47203;48.428;11.974;2022-07-23T01:48:44;96883.53;;;26.87;43.39
61324;BME280;47203;48.428;11.974;2022-07-23T01:51:08;96898.97;;;26.86;43.45
61324;BME280;47203;48.428;11.974;2022-07-23T01:53:17;96909.41;;;26.88;43.25
61324;BME280;47203;48.428;11.974;2022-07-23T01:55:26;96902.06;;;26.88;43.44
61324;BME280;47203;48.428;11.974;2022-07-23T01:57:32;96937.59;;;26.90;43.36
61324;BME280;47203;48.428;11.974;2022-07-23T01:59:38;96953.81;;;26.90;42.84
61324;BME280;47203;48.428;11.974;2022-07-23T02:01:45;96931.44;;;26.90;42.95
61324;BME280;47203;48.428;11.974;2022-07-23T02:03:51;96939.16;;;26.91;42.40
61324;BME280;47203;48.428;11.974;2022-07-23T02:05:56;96941.88;;;26.91;41.68
61324;BME280;47203;48.428;11.974;2022-07-23T02:08:04;96938.38;;;26.91;41.98
61324;BME280;47203;48.428;11.974;2022-07-23T02:10:11;96944.97;;;26.93;41.68
61324;BME280;47203;48.428;11.974;2022-07-23T02:12:19;96956.53;;;26.94;41.09
61324;BME280;47203;48.428;11.974;2022-07-23T02:14:25;96950.78;;;26.95;40.79
61324;BME280;47203;48.428;11.974;2022-07-23T02:16:31;96937.63;;;26.94;40.09
61324;BME280;47203;48.428;11.974;2022-07-23T02:18:37;96947.66;;;26.93;39.93
61324;BME280;47203;48.428;11.974;2022-07-23T02:20:42;96952.66;;;26.91;39.87
61324;BME280;47203;48.428;11.974;2022-07-23T02:22:48;96958.06;;;26.91;39.60
61324;BME280;47203;48.428;11.974;2022-07-23T02:24:53;96952.97;;;26.86;39.44
61324;BME280;47203;48.428;11.974;2022-07-23T02:26:59;96946.75;;;26.82;39.62
61324;BME280;47203;48.428;11.974;2022-07-23T02:29:07;96954.75;;;26.75;40.04
61324;BME280;47203;48.428;11.974;2022-07-23T02:31:12;96954.72;;;26.71;40.56
61324;BME280;47203;48.428;11.974;2022-07-23T02:33:18;96958.84;;;26.65;41.08
61324;BME280;47203;48.428;11.974;2022-07-23T02:35:24;96959.81;;;26.53;41.21
61324;BME280;47203;48.428;11.974;2022-07-23T02:37:32;96947.28;;;26.41;41.61
61324;BME280;47203;48.428;11.974;2022-07-23T02:39:37;96940.53;;;26.28;42.23
61324;BME280;47203;48.428;11.974;2022-07-23T02:41:43;96943.09;;;26.17;42.60
61324;BME280;47203;48.428;11.974;2022-07-23T02:43:48;96949.00;;;26.03;43.12
61324;BME280;47203;48.428;11.974;2022-07-23T02:45:56;96953.00;;;25.90;43.30
61324;BME280;47203;48.428;11.974;2022-07-23T02:48:01;96976.72;;;25.81;43.90
61324;BME280;47203;48.428;11.974;2022-07-23T02:50:08;96977.66;;;25.69;43.91
61324;BME280;47203;48.428;11.974;2022-07-23T02:52:14;96976.69;;;25.57;44.37
61324;BME280;47203;48.428;11.974;2022-07-23T02:54:20;96973.72;;;25.43;44.08
61324;BME280;47203;48.428;11.974;2022-07-23T02:56:26;96959.25;;;25.32;44.64
61324;BME280;47203;48.428;11.974;2022-07-23T02:58:32;96963.28;;;25.22;44.95
61324;BME280;47203;48.428;11.974;2022-07-23T03:00:38;96969.22;;;25.12;44.71
61324;BME280;47203;48.428;11.974;2022-07-23T03:02:45;96974.03;;;25.02;45.20
61324;BME280;47203;48.428;11.974;2022-07-23T03:04:51;96950.78;;;24.94;45.00
61324;BME280;47203;48.428;11.974;2022-07-23T03:06:56;96942.91;;;24.85;45.53
61324;BME280;47203;48.428;11.974;2022-07-23T03:09:02;96930.13;;;24.82;45.63
61324;BME280;47203;48.428;11.974;2022-07-23T03:11:07;96929.38;;;24.82;45.81
61324;BME280;47203;48.428;11.974;2022-07-23T03:13:15;96929.00;;;24.83;46.07
61324;BME280;47203;48.428;11.974;2022-07-23T03:15:20;96934.41;;;24.83;46.43
61324;BME280;47203;48.428;11.974;2022-07-23T03:17:25;96925.09;;;24.81;45.94
61324;BME280;47203;48.428;11.974;2022-07-23T03:19:33;96920.72;;;24.72;45.78
61324;BME280;47203;48.428;11.974;2022-07-23T03:21:39;96903.63;;;24.65;45.66
61324;BME280;47203;48.428;11.974;2022-07-23T03:23:44;96903.13;;;24.59;45.61
61324;BME280;47203;48.428;11.974;2022-07-23T03:25:49;96888.09;;;24.58;46.55
61324;BME280;47203;48.428;11.974;2022-07-23T03:27:57;96881.50;;;24.55;46.43
61324;BME280;47203;48.428;11.974;2022-07-23T03:30:05;96880.28;;;24.53;46.58
61324;BME280;47203;48.428;11.974;2022-07-23T03:32:11;96894.78;;;24.48;46.92
61324;BME280;47203;48.428;11.974;2022-07-23T03:34:16;96901.56;;;24.42;46.90
61324;BME280;47203;48.428;11.974;2022-07-23T03:36:24;96883.81;;;24.37;47.26
61324;BME280;47203;48.428;11.974;2022-07-23T03:38:31;96880.31;;;24.37;47.77
61324;BME280;47203;48.428;11.974;2022-07-23T03:40:37;96879.91;;;24.35;48.35
61324;BME280;47203;48.428;11.974;2022-07-23T03:42:42;96866.78;;;24.33;48.17
61324;BME280;47203;48.428;11.974;2022-07-23T03:44:48;96862.53;;;24.32;48.31
61324;BME280;47203;48.428;11.974;2022-07-23T03:46:53;96851.78;;;24.32;48.17
61324;BME280;47203;48.428;11.974;2022-07-23T03:48:58;96843.66;;;24.29;48.31
61324;BME280;47203;48.428;11.974;2022-07-23T03:51:05;96844.34;;;24.26;48.38
61324;BME280;47203;48.428;11.974;2022-07-23T03:53:13;96849.22;;;24.20;48.37
61324;BME280;47203;48.428;11.974;2022-07-23T03:55:18;96848.78;;;24.18;48.07
61324;BME280;47203;48.428;11.974;2022-07-23T03:57:24;96865.59;;;24.15;48.96
61324;BME280;47203;48.428;11.974;2022-07-23T03:59:29;96862.41;;;24.09;49.34
61324;BME280;47203;48.428;11.974;2022-07-23T04:01:35;96865.78;;;24.06;49.50
61324;BME280;47203;48.428;11.974;2022-07-23T04:03:41;96847.59;;;23.99;49.54
61324;BME280;47203;48.428;11.974;2022-07-23T04:05:46;96845.88;;;23.91;49.51
61324;BME280;47203;48.428;11.974;2022-07-23T04:07:51;96848.69;;;23.82;50.05
61324;BME280;47203;48.428;11.974;2022-07-23T04:10:00;96846.53;;;23.72;50.13
61324;BME280;47203;48.428;11.974;2022-07-23T04:12:06;96828.44;;;23.69;50.20
61324;BME280;47203;48.428;11.974;2022-07-23T04:14:11;96826.34;;;23.62;50.62
61324;BME280;47203;48.428;11.974;2022-07-23T04:16:17;96809.78;;;23.60;50.56
61324;BME280;47203;48.428;11.974;2022-07-23T04:18:22;96824.69;;;23.58;50.89
61324;BME280;47203;48.428;11.974;2022-07-23T04:20:33;96831.09;;;23.53;51.09
61324;BME280;47203;48.428;11.974;2022-07-23T04:22:42;96851.72;;;23.49;51.21
61324;BME280;47203;48.428;11.974;2022-07-23T04:24:48;96808.50;;;23.38;51.27
61324;BME280;47203;48.428;11.974;2022-07-23T04:26:56;96834.72;;;23.29;51.94
61324;BME280;47203;48.428;11.974;2022-07-23T04:29:02;96813.50;;;23.24;52.59
61324;BME280;47203;48.428;11.974;2022-07-23T04:31:07;96832.09;;;23.16;52.74
61324;BME280;47203;48.428;11.974;2022-07-23T04:33:14;96828.88;;;23.11;52.33
61324;BME280;47203;48.428;11.974;2022-07-23T04:35:22;96840.28;;;23.08;53.08
61324;BME280;47203;48.428;11.974;2022-07-23T04:37:32;96842.84;;;23.04;53.00
61324;BME280;47203;48.428;11.974;2022-07-23T04:39:37;96852.06;;;23.03;53.29
61324;BME280;47203;48.428;11.974;2022-07-23T04:41:43;96848.13;;;23.00;53.33
61324;BME280;47203;48.428;11.974;2022-07-23T04:43:51;96838.44;;;22.96;53.86
61324;BME280;47203;48.428;11.974;2022-07-23T04:45:57;96833.84;;;22.96;54.05
61324;BME280;47203;48.428;11.974;2022-07-23T04:48:08;96826.59;;;22.97;53.37
61324;BME280;47203;48.428;11.974;2022-07-23T04:50:14;96833.50;;;22.98;53.43
61324;BME280;47203;48.428;11.974;2022-07-23T04:52:27;96840.78;;;22.97;53.23
61324;BME280;47203;48.428;11.974;2022-07-23T04:54:32;96839.31;;;23.00;53.34
61324;BME280;47203;48.428;11.974;2022-07-23T04:56:37;96847.72;;;22.98;53.30
61324;BME280;47203;48.428;11.974;2022-07-23T04:58:42;96837.84;;;23.02;53.38
61324;BME280;47203;48.428;11.974;2022-07-23T05:00:50;96838.28;;;23.05;53.42
61324;BME280;47203;48.428;11.974;2022-07-23T05:02:56;96850.03;;;23.12;53.46
61324;BME280;47203;48.428;11.974;2022-07-23T05:05:02;96852.91;;;23.20;53.11
61324;BME280;47203;48.428;11.974;2022-07-23T05:07:08;96855.00;;;23.26;52.75
61324;BME280;47203;48.428;11.974;2022-07-23T05:09:13;96854.16;;;23.38;52.72
61324;BME280;47203;48.428;11.974;2022-07-23T05:11:18;96855.19;;;23.49;52.79
61324;BME280;47203;48.428;11.974;2022-07-23T05:13:28;96857.38;;;23.60;52.49
61324;BME280;47203;48.428;11.974;2022-07-23T05:15:34;96845.66;;;23.68;52.79
61324;BME280;47203;48.428;11.974;2022-07-23T05:17:42;96855.03;;;23.74;52.69
61324;BME280;47203;48.428;11.974;2022-07-23T05:19:51;96861.28;;;23.78;52.59
61324;BME280;47203;48.428;11.974;2022-07-23T05:22:03;96854.78;;;23.79;52.98
61324;BME280;47203;48.428;11.974;2022-07-23T05:24:08;96839.88;;;23.82;52.47
61324;BME280;47203;48.428;11.974;2022-07-23T05:26:14;96838.38;;;23.84;52.58
61324;BME280;47203;48.428;11.974;2022-07-23T05:28:19;96839.94;;;23.85;52.71
61324;BME280;47203;48.428;11.974;2022-07-23T05:30:27;96839.63;;;23.87;52.61
61324;BME280;47203;48.428;11.974;2022-07-23T05:32:35;96842.75;;;23.89;52.37
61324;BME280;47203;48.428;11.974;2022-07-23T05:34:50;96844.75;;;23.92;52.75
61324;BME280;47203;48.428;11.974;2022-07-23T05:36:56;96842.56;;;23.98;52.24
61324;BME280;47203;48.428;11.974;2022-07-23T05:39:01;96845.69;;;24.00;52.09
61324;BME280;47203;48.428;11.974;2022-07-23T05:41:11;96840.31;;;24.00;52.54
61324;BME280;47203;48.428;11.974;2022-07-23T05:43:16;96852.69;;;24.04;52.32
61324;BME280;47203;48.428;11.974;2022-07-23T05:45:22;96848.53;;;24.07;52.28
61324;BME280;47203;48.428;11.974;2022-07-23T05:47:27;96853.22;;;24.10;52.47
61324;BME280;47203;48.428;11.974;2022-07-23T05:49:32;96850.53;;;24.10;52.05
61324;BME280;47203;48.428;11.974;2022-07-23T05:52:07;96847.78;;;24.07;52.10
61324;BME280;47203;48.428;11.974;2022-07-23T05:54:46;96861.91;;;24.03;52.37
61324;BME280;47203;48.428;11.974;2022-07-23T05:56:51;96859.91;;;24.00;52.15
61324;BME280;47203;48.428;11.974;2022-07-23T05:58:57;96866.84;;;24.01;52.23
61324;BME280;47203;48.428;11.974;2022-07-23T06:01:03;96874.56;;;24.03;52.65
61324;BME280;47203;48.428;11.974;2022-07-23T06:03:16;96870.81;;;24.08;52.15
61324;BME280;47203;48.428;11.974;2022-07-23T06:05:22;96880.97;;;24.14;52.55
61324;BME280;47203;48.428;11.974;2022-07-23T06:07:33;96878.34;;;24.18;52.47
61324;BME280;47203;48.428;11.974;2022-07-23T06:09:39;96865.16;;;24.29;52.53
61324;BME280;47203;48.428;11.974;2022-07-23T06:11:44;96868.00;;;24.36;52.59
61324;BME280;47203;48.428;11.974;2022-07-23T06:13:50;96875.88;;;24.45;52.63
61324;BME280;47203;48.428;11.974;2022-07-23T06:15:59;96880.28;;;24.53;51.89
61324;BME280;47203;48.428;11.974;2022-07-23T06:18:05;96883.81;;;24.57;52.08
61324;BME280;47203;48.428;11.974;2022-07-23T06:20:11;96880.47;;;24.60;51.96
61324;BME280;47203;48.428;11.974;2022-07-23T06:22:17;96885.13;;;24.63;51.59
61324;BME280;47203;48.428;11.974;2022-07-23T06:24:25;96884.47;;;24.66;51.80
61324;BME280;47203;48.428;11.974;2022-07-23T06:26:30;96873.13;;;24.77;51.57
61324;BME280;47203;48.428;11.974;2022-07-23T06:28:35;96873.34;;;24.87;52.02
61324;BME280;47203;48.428;11.974;2022-07-23T06:30:41;96875.88;;;25.00;51.68
61324;BME280;47203;48.428;11.974;2022-07-23T06:32:49;96874.63;;;25.13;51.62
61324;BME280;47203;48.428;11.974;2022-07-23T06:34:54;96865.66;;;25.29;51.46
61324;BME280;47203;48.428;11.974;2022-07-23T06:36:59;96856.66;;;25.40;50.88
61324;BME280;47203;48.428;11.974;2022-07-23T06:39:05;96865.34;;;25.53;51.19
61324;BME280;47203;48.428;11.974;2022-07-23T06:41:13;96869.00;;;25.65;51.23
61324;BME280;47203;48.428;11.974;2022-07-23T06:43:19;96869.66;;;25.81;50.68
61324;BME280;47203;48.428;11.974;2022-07-23T06:45:29;96863.28;;;25.93;50.34
61324;BME280;47203;48.428;11.974;2022-07-23T06:47:34;96860.00;;;26.03;50.33
61324;BME280;47203;48.428;11.974;2022-07-23T06:49:39;96869.00;;;26.11;49.89
61324;BME280;47203;48.428;11.974;2022-07-23T06:51:45;96855.97;;;26.17;49.94
61324;BME280;47203;48.428;11.974;2022-07-23T06:53:51;96866.88;;;26.24;49.86
61324;BME280;47203;48.428;11.974;2022-07-23T06:55:56;96859.59;;;26.28;49.80
61324;BME280;47203;48.428;11.974;2022-07-23T06:58:04;96864.28;;;26.31;49.50
61324;BME280;47203;48.428;11.974;2022-07-23T07:00:13;96864.34;;;26.35;49.52
61324;BME280;47203;48.428;11.974;2022-07-23T07:02:18;96872.09;;;26.40;49.04
61324;BME280;47203;48.428;11.974;2022-07-23T07:04:24;96867.16;;;26.45;49.01
61324;BME280;47203;48.428;11.974;2022-07-23T07:06:29;96873.41;;;26.50;48.80
61324;BME280;47203;48.428;11.974;2022-07-23T07:08:35;96876.09;;;26.50;49.49
61324;BME280;47203;48.428;11.974;2022-07-23T07:10:40;96883.09;;;26.54;49.12
61324;BME280;47203;48.428;11.974;2022-07-23T07:12:45;96883.97;;;26.62;48.80
61324;BME280;47203;48.428;11.974;2022-07-23T07:14:53;96891.75;;;26.67;49.18
61324;BME280;47203;48.428;11.974;2022-07-23T07:16:59;96902.69;;;26.74;49.30
61324;BME280;47203;48.428;11.974;2022-07-23T07:19:04;96907.75;;;26.79;49.07
61324;BME280;47203;48.428;11.974;2022-07-23T07:21:09;96915.16;;;26.86;48.67
61324;BME280;47203;48.428;11.974;2022-07-23T07:23:14;96924.09;;;26.90;48.30
61324;BME280;47203;48.428;11.974;2022-07-23T07:25:20;96940.31;;;26.90;48.63
61324;BME280;47203;48.428;11.974;2022-07-23T07:27:25;96951.47;;;26.89;48.35
61324;BME280;47203;48.428;11.974;2022-07-23T07:29:31;96949.53;;;26.89;48.58
61324;BME280;47203;48.428;11.974;2022-07-23T07:31:38;96944.47;;;26.84;48.20
61324;BME280;47203;48.428;11.974;2022-07-23T07:33:44;96949.88;;;26.84;48.54
61324;BME280;47203;48.428;11.974;2022-07-23T07:35:50;96935.56;;;26.83;48.20
61324;BME280;47203;48.428;11.974;2022-07-23T07:37:55;96928.31;;;26.88;48.29
61324;BME280;47203;48.428;11.974;2022-07-23T07:40:00;96939.56;;;26.93;48.54
61324;BME280;47203;48.428;11.974;2022-07-23T07:42:06;96949.25;;;26.94;48.10
61324;BME280;47203;48.428;11.974;2022-07-23T07:44:11;96937.22;;;26.92;48.66
61324;BME280;47203;48.428;11.974;2022-07-23T07:46:17;96938.34;;;26.87;48.53
61324;BME280;47203;48.428;11.974;2022-07-23T07:48:24;96934.81;;;26.83;48.40
61324;BME280;47203;48.428;11.974;2022-07-23T07:50:30;96930.97;;;26.84;48.09
61324;BME280;47203;48.428;11.974;2022-07-23T07:52:36;96930.19;;;26.83;48.42
61324;BME280;47203;48.428;11.974;2022-07-23T07:54:41;96916.63;;;26.80;48.47
61324;BME280;47203;48.428;11.974;2022-07-23T07:56:46;96927.44;;;26.80;48.03
61324;BME280;47203;48.428;11.974;2022-07-23T07:58:51;96929.41;;;26.83;48.13
61324;BME280;47203;48.428;11.974;2022-07-23T08:00:56;96927.91;;;26.86;48.01
61324;BME280;47203;48.428;11.974;2022-07-23T08:03:03;96936.38;;;26.84;47.60
61324;BME280;47203;48.428;11.974;2022-07-23T08:05:12;96942.41;;;26.74;47.83
61324;BME280;47203;48.428;11.974;2022-07-23T08:07:18;96933.88;;;26.72;47.86
61324;BME280;47203;48.428;11.974;2022-07-23T08:09:24;96944.31;;;26.73;47.90
61324;BME280;47203;48.428;11.974;2022-07-23T08:11:29;96948.97;;;26.76;48.06
61324;BME280;47203;48.428;11.974;2022-07-23T08:13:34;96949.78;;;26.77;48.18
61324;BME280;47203;48.428;11.974;2022-07-23T08:15:40;96947.47;;;26.79;48.12
61324;BME280;47203;48.428;11.974;2022-07-23T08:17:47;96949.88;;;26.84;47.84
61324;BME280;47203;48.428;11.974;2022-07-23T08:19:52;96955.75;;;26.90;47.76
61324;BME280;47203;48.428;11.974;2022-07-23T08:22:00;96966.19;;;26.91;48.07
61324;BME280;47203;48.428;11.974;2022-07-23T08:24:06;96965.06;;;26.96;47.79
61324;BME280;47203;48.428;11.974;2022-07-23T08:26:11;96967.41;;;26.97;47.75
61324;BME280;47203;48.428;11.974;2022-07-23T08:28:17;96972.00;;;26.97;47.71
61324;BME280;47203;48.428;11.974;2022-07-23T08:30:23;96969.31;;;26.97;48.45
61324;BME280;47203;48.428;11.974;2022-07-23T08:32:28;96982.50;;;27.02;48.25
61324;BME280;47203;48.428;11.974;2022-07-23T08:34:46;96984.09;;;27.07;48.16
61324;BME280;47203;48.428;11.974;2022-07-23T08:36:51;96982.19;;;27.07;48.45
61324;BME280;47203;48.428;11.974;2022-07-23T08:38:59;96973.63;;;27.02;48.29
61324;BME280;47203;48.428;11.974;2022-07-23T08:41:08;96980.47;;;26.95;47.91
61324;BME280;47203;48.428;11.974;2022-07-23T08:43:16;96988.09;;;26.86;48.19
61324;BME280;47203;48.428;11.974;2022-07-23T08:45:24;96987.63;;;26.80;48.16
61324;BME280;47203;48.428;11.974;2022-07-23T08:47:29;96979.50;;;26.80;48.53
61324;BME280;47203;48.428;11.974;2022-07-23T08:49:36;96987.69;;;26.84;48.67
61324;BME280;47203;48.428;11.974;2022-07-23T08:51:42;96994.97;;;26.83;48.25
61324;BME280;47203;48.428;11.974;2022-07-23T08:53:48;96983.72;;;26.78;48.23
61324;BME280;47203;48.428;11.974;2022-07-23T08:55:58;96980.13;;;26.70;48.30
61324;BME280;47203;48.428;11.974;2022-07-23T08:58:04;96986.25;;;26.67;48.64
61324;BME280;47203;48.428;11.974;2022-07-23T09:00:13;96982.31;;;26.61;48.75
61324;BME280;47203;48.428;11.974;2022-07-23T09:02:19;96979.63;;;26.64;48.99
61324;BME280;47203;48.428;11.974;2022-07-23T09:04:24;96981.34;;;26.73;49.06
61324;BME280;47203;48.428;11.974;2022-07-23T09:06:30;96986.41;;;26.78;48.47
61324;BME280;47203;48.428;11.974;2022-07-23T09:08:37;96992.97;;;26.77;48.95
61324;BME280;47203;48.428;11.974;2022-07-23T09:10:45;96989.06;;;26.74;48.78
61324;BME280;47203;48.428;11.974;2022-07-23T09:12:54;96992.53;;;26.75;48.69
61324;BME280;47203;48.428;11.974;2022-07-23T09:15:06;96997.91;;;26.71;48.74
61324;BME280;47203;48.428;11.974;2022-07-23T09:17:13;96994.13;;;26.53;49.04
61324;BME280;47203;48.428;11.974;2022-07-23T09:19:27;97000.25;;;26.50;49.19
61324;BME280;47203;48.428;11.974;2022-07-23T09:21:34;97010.19;;;26.45;49.11
61324;BME280;47203;48.428;11.974;2022-07-23T09:23:43;97007.75;;;26.37;49.41
61324;BME280;47203;48.428;11.974;2022-07-23T09:25:48;97008.44;;;26.30;49.67
61324;BME280;47203;48.428;11.974;2022-07-23T09:27:59;97000.94;;;26.20;49.57
61324;BME280;47203;48.428;11.974;2022-07-23T09:30:07;97006.22;;;26.12;50.12
61324;BME280;47203;48.428;11.974;2022-07-23T09:32:14;97018.91;;;26.12;50.37
61324;BME280;47203;48.428;11.974;2022-07-23T09:34:21;97024.72;;;26.14;50.18
61324;BME280;47203;48.428;11.974;2022-07-23T09:36:29;97031.38;;;26.20;50.12
61324;BME280;47203;48.428;11.974;2022-07-23T09:38:34;97031.06;;;26.25;49.99
61324;BME280;47203;48.428;11.974;2022-07-23T09:41:07;96993.28;;;26.25;50.17
61324;BME280;47203;48.428;11.974;2022-07-23T09:43:27;97008.59;;;26.41;50.32
61324;BME280;47203;48.428;11.974;2022-07-23T09:45:36;97004.13;;;26.75;49.68
61324;BME280;47203;48.428;11.974;2022-07-23T09:47:42;97028.44;;;27.02;49.71
61324;BME280;47203;48.428;11.974;2022-07-23T09:50:02;97020.72;;;27.31;48.63
61324;BME280;47203;48.428;11.974;2022-07-23T09:52:08;97023.72;;;27.56;48.82
61324;BME280;47203;48.428;11.974;2022-07-23T09:54:31;97025.47;;;27.72;48.05
61324;BME280;47203;48.428;11.974;2022-07-23T09:56:38;97025.59;;;27.86;48.02
61324;BME280;47203;48.428;11.974;2022-07-23T09:58:50;97029.91;;;27.91;47.45
61324;BME280;47203;48.428;11.974;2022-07-23T10:01:05;97025.78;;;28.00;47.55
61324;BME280;47203;48.428;11.974;2022-07-23T10:03:12;97027.81;;;28.11;47.13
61324;BME280;47203;48.428;11.974;2022-07-23T10:05:37;97021.31;;;28.19;46.65
61324;BME280;47203;48.428;11.974;2022-07-23T10:08:02;97020.25;;;28.31;46.41
61324;BME280;47203;48.428;11.974;2022-07-23T10:10:32;97022.31;;;28.45;46.16
61324;BME280;47203;48.428;11.974;2022-07-23T10:13:00;97008.94;;;28.63;46.05
61324;BME280;47203;48.428;11.974;2022-07-23T10:15:27;97011.03;;;28.87;45.58
61324;BME280;47203;48.428;11.974;2022-07-23T10:17:34;97022.81;;;29.20;45.28
61324;BME280;47203;48.428;11.974;2022-07-23T10:19:43;97025.66;;;29.38;44.71
61324;BME280;47203;48.428;11.974;2022-07-23T10:21:55;97026.88;;;29.52;44.94
61324;BME280;47203;48.428;11.974;2022-07-23T10:24:17;97024.97;;;29.67;44.96
61324;BME280;47203;48.428;11.974;2022-07-23T10:26:40;97020.03;;;29.87;44.52
61324;BME280;47203;48.428;11.974;2022-07-23T10:29:05;97014.22;;;30.06;43.52
61324;BME280;47203;48.428;11.974;2022-07-23T10:31:33;97001.06;;;30.19;43.38
61324;BME280;47203;48.428;11.974;2022-07-23T10:34:12;97011.56;;;30.42;43.07
61324;BME280;47203;48.428;11.974;2022-07-23T10:36:24;97011.56;;;30.53;42.53
61324;BME280;47203;48.428;11.974;2022-07-23T10:38:41;97008.84;;;30.64;42.33
61324;BME280;47203;48.428;11.974;2022-07-23T10:40:56;97002.22;;;30.79;42.39
61324;BME280;47203;48.428;11.974;2022-07-23T10:43:13;97004.91;;;31.01;42.12
61324;BME280;47203;48.428;11.974;2022-07-23T10:45:26;96997.47;;;31.23;41.27
61324;BME280;47203;48.428;11.974;2022-07-23T10:47:35;96985.38;;;31.39;41.20
61324;BME280;47203;48.428;11.974;2022-07-23T10:49:49;96984.50;;;31.53;40.97
61324;BME280;47203;48.428;11.974;2022-07-23T10:52:20;96984.50;;;31.63;40.56
61324;BME280;47203;48.428;11.974;2022-07-23T10:54:25;96980.91;;;31.77;40.39
61324;BME280;47203;48.428;11.974;2022-07-23T10:57:05;96973.50;;;31.85;40.77
61324;BME280;47203;48.428;11.974;2022-07-23T10:59:11;96979.56;;;32.07;40.26
61324;BME280;47203;48.428;11.974;2022-07-23T11:01:32;96977.88;;;32.24;39.84
61324;BME280;47203;48.428;11.974;2022-07-23T11:03:56;96977.75;;;32.39;39.42
61324;BME280;47203;48.428;11.974;2022-07-23T11:06:04;96966.72;;;32.57;39.39
61324;BME280;47203;48.428;11.974;2022-07-23T11:08:18;96978.69;;;32.70;39.18
61324;BME280;47203;48.428;11.974;2022-07-23T11:10:33;96961.00;;;32.85;39.41